Time;durP1;ratioP1;P1;durP2;ratioP2;P2;SDS_P1;SDS_P2;PMS_P1;PMS_P2;Temp;Humidity;BMP_temperature;BMP_pressure;BME280_temperature;BME280_humidity;BME280_pressure;Samples;Min_cycle;Max_cycle;Signal;HPM_P1;HPM_P2
2023/06/07 00:00:21;;;;;;;4.50;3.50;;;20.90;99.90;;;;;;4984622;28;20269;-69
2023/06/07 00:02:46;;;;;;;5.25;3.75;;;20.80;99.90;;;;;;4990108;28;20264;-70
2023/06/07 00:05:12;;;;;;;5.50;3.85;;;20.80;99.90;;;;;;4988193;28;20207;-70
2023/06/07 00:07:38;;;;;;;3.95;3.55;;;20.80;99.90;;;;;;4990594;28;20260;-69
2023/06/07 00:10:05;;;;;;;5.22;3.60;;;20.80;99.90;;;;;;4990455;28;20251;-70
2023/06/07 00:12:31;;;;;;;5.47;3.58;;;20.80;99.90;;;;;;4991001;28;20988;-70
2023/06/07 00:14:59;;;;;;;8.05;3.58;;;20.80;99.90;;;;;;4994117;28;20177;-70
2023/06/07 00:17:27;;;;;;;4.15;3.30;;;20.80;99.90;;;;;;4993020;28;20257;-70
2023/06/07 00:19:53;;;;;;;6.00;3.50;;;20.80;99.90;;;;;;4996848;28;20712;-70
2023/06/07 00:22:19;;;;;;;5.75;4.95;;;20.90;99.90;;;;;;4996649;28;20208;-70
2023/06/07 00:24:45;;;;;;;4.60;3.25;;;20.70;99.90;;;;;;4997522;28;20339;-70
2023/06/07 00:27:10;;;;;;;4.28;3.58;;;20.70;99.90;;;;;;4995136;28;20561;-69
2023/06/07 00:29:36;;;;;;;8.63;3.53;;;20.70;99.90;;;;;;4998672;28;20205;-70
2023/06/07 00:32:02;;;;;;;7.18;4.20;;;20.70;99.90;;;;;;4985846;28;20305;-68
2023/06/07 00:34:28;;;;;;;4.63;3.50;;;20.70;99.90;;;;;;4986616;28;20198;-70
2023/06/07 00:36:54;;;;;;;5.28;3.83;;;20.70;99.90;;;;;;4985851;28;20200;-70
2023/06/07 00:39:20;;;;;;;6.15;2.95;;;20.70;99.90;;;;;;4984859;28;20300;-70
2023/06/07 00:41:45;;;;;;;4.93;4.15;;;20.60;99.90;;;;;;4987639;28;20551;-70
2023/06/07 00:44:12;;;;;;;9.93;3.53;;;20.60;99.90;;;;;;4987201;28;20240;-70
2023/06/07 00:46:37;;;;;;;6.38;3.65;;;20.60;99.90;;;;;;4988163;28;20225;-70
2023/06/07 00:49:04;;;;;;;7.15;3.90;;;20.60;99.90;;;;;;4990852;28;20245;-68
2023/06/07 00:51:30;;;;;;;7.30;3.45;;;20.60;99.90;;;;;;4989934;28;20201;-70
2023/06/07 00:54:00;;;;;;;6.18;4.32;;;20.60;99.90;;;;;;4994309;28;20231;-70
2023/06/07 00:56:27;;;;;;;6.55;3.17;;;20.60;99.90;;;;;;4991951;28;20679;-70
2023/06/07 00:58:53;;;;;;;4.10;3.40;;;20.50;99.90;;;;;;4992866;28;20749;-70
2023/06/07 01:01:19;;;;;;;4.93;4.38;;;20.50;99.90;;;;;;4995528;28;20303;-70
2023/06/07 01:03:45;;;;;;;6.40;3.72;;;20.40;99.90;;;;;;4997597;28;20255;-70
2023/06/07 01:06:13;;;;;;;5.00;3.47;;;20.40;99.90;;;;;;4998656;28;20220;-70
2023/06/07 01:08:40;;;;;;;3.60;3.22;;;20.40;99.90;;;;;;4995404;28;20715;-70
2023/06/07 01:11:06;;;;;;;5.38;3.63;;;20.40;99.90;;;;;;4983249;28;20229;-70
2023/06/07 01:13:33;;;;;;;4.93;3.35;;;20.40;99.90;;;;;;4987168;28;20712;-70
2023/06/07 01:15:59;;;;;;;5.60;3.38;;;20.40;99.90;;;;;;4985095;28;20664;-70
2023/06/07 01:18:25;;;;;;;4.63;2.95;;;20.50;99.90;;;;;;4984023;28;20216;-70
2023/06/07 01:20:55;;;;;;;4.07;3.25;;;20.50;99.90;;;;;;4987528;28;20240;-69
2023/06/07 01:23:32;;;;;;;5.43;3.83;;;20.50;99.90;;;;;;4985299;28;20256;-70
2023/06/07 01:25:59;;;;;;;7.63;4.40;;;20.40;99.90;;;;;;4987413;28;20263;-69
2023/06/07 01:28:28;;;;;;;6.28;3.10;;;20.40;99.90;;;;;;4983689;28;20284;-70
2023/06/07 01:30:54;;;;;;;4.38;3.10;;;20.40;99.90;;;;;;4991006;28;20209;-70
2023/06/07 01:33:22;;;;;;;6.50;3.20;;;20.40;99.90;;;;;;4990823;28;20283;-70
2023/06/07 01:35:53;;;;;;;4.68;3.25;;;20.40;99.90;;;;;;4992716;28;20166;-70
2023/06/07 01:38:20;;;;;;;4.93;3.63;;;20.40;99.90;;;;;;4993919;28;20210;-69
2023/06/07 01:40:47;;;;;;;5.60;3.30;;;20.30;99.90;;;;;;4996308;28;20726;-70
2023/06/07 01:43:14;;;;;;;9.35;5.55;;;20.30;99.90;;;;;;4996893;28;20746;-70
2023/06/07 01:45:41;;;;;;;4.85;3.65;;;20.30;99.90;;;;;;4996302;28;20202;-70
2023/06/07 01:48:08;;;;;;;7.15;3.75;;;20.30;99.90;;;;;;4993489;28;20644;-69
2023/06/07 01:50:33;;;;;;;4.80;3.03;;;20.30;99.90;;;;;;4980833;28;20257;-70
2023/06/07 01:52:59;;;;;;;9.02;3.60;;;20.20;99.90;;;;;;4984546;28;20202;-70
2023/06/07 01:55:26;;;;;;;4.38;3.20;;;20.20;99.90;;;;;;4982959;28;20205;-69
2023/06/07 01:58:10;;;;;;;5.47;3.00;;;20.20;99.90;;;;;;4992820;28;20200;-70
2023/06/07 02:00:51;;;;;;;4.38;3.45;;;20.20;99.90;;;;;;4985466;28;20712;-70
2023/06/07 02:03:25;;;;;;;6.10;3.58;;;20.20;99.90;;;;;;4988636;28;20221;-70
2023/06/07 02:05:56;;;;;;;6.35;3.40;;;20.10;99.90;;;;;;4985653;28;20162;-70
2023/06/07 02:08:38;;;;;;;4.40;3.22;;;20.10;99.90;;;;;;4986367;28;20172;-69
2023/06/07 02:11:04;;;;;;;3.75;2.53;;;20.10;99.90;;;;;;4997363;28;20209;-70
2023/06/07 02:13:34;;;;;;;5.15;3.42;;;20.10;99.90;;;;;;4993725;28;20195;-70
2023/06/07 02:16:04;;;;;;;7.60;3.50;;;20.10;99.90;;;;;;4997470;28;20256;-70
2023/06/07 02:18:31;;;;;;;5.93;3.92;;;20.20;99.90;;;;;;4997686;28;20202;-70
2023/06/07 02:20:56;;;;;;;3.95;3.55;;;20.10;99.90;;;;;;5001423;28;20507;-70
2023/06/07 02:23:22;;;;;;;8.32;3.70;;;20.10;99.90;;;;;;5000586;28;20177;-69
2023/06/07 02:25:49;;;;;;;5.68;3.83;;;20.10;99.90;;;;;;5002140;28;20757;-70
2023/06/07 02:28:15;;;;;;;5.97;3.10;;;20.10;99.90;;;;;;4985149;28;20205;-70
2023/06/07 02:30:40;;;;;;;4.90;3.20;;;20.10;99.90;;;;;;4984649;28;20546;-70
2023/06/07 02:33:13;;;;;;;4.97;3.70;;;20.00;99.90;;;;;;4988734;28;20225;-70
2023/06/07 02:35:40;;;;;;;4.60;3.15;;;20.00;99.90;;;;;;4985522;28;20557;-70
2023/06/07 02:38:06;;;;;;;6.88;3.58;;;20.00;99.90;;;;;;4989941;28;20198;-70
2023/06/07 02:40:33;;;;;;;4.47;3.58;;;20.10;99.90;;;;;;4976488;28;20210;-69
2023/06/07 02:42:58;;;;;;;4.47;3.50;;;20.00;99.90;;;;;;4990695;28;20198;-69
2023/06/07 02:45:24;;;;;;;4.15;3.30;;;20.00;99.90;;;;;;4991673;28;20219;-69
2023/06/07 02:47:50;;;;;;;6.25;3.33;;;20.00;99.90;;;;;;4994313;28;20168;-70
2023/06/07 02:50:16;;;;;;;6.68;5.38;;;20.00;99.90;;;;;;5004187;28;20242;-69
2023/06/07 02:52:44;;;;;;;6.75;5.50;;;20.00;99.90;;;;;;5015213;28;20575;-69
2023/06/07 02:55:10;;;;;;;6.30;3.55;;;20.00;99.90;;;;;;5018747;28;20571;-70
2023/06/07 02:57:35;;;;;;;5.32;3.47;;;19.90;99.90;;;;;;5016627;28;20205;-69
2023/06/07 03:00:01;;;;;;;6.65;3.67;;;20.00;99.90;;;;;;5020802;28;20682;-69
2023/06/07 03:02:27;;;;;;;6.70;4.30;;;20.00;99.90;;;;;;5020552;28;20183;-70
2023/06/07 03:04:56;;;;;;;7.50;3.63;;;20.00;99.90;;;;;;5015658;28;20309;-70
2023/06/07 03:07:22;;;;;;;6.88;3.90;;;20.00;99.90;;;;;;5003652;28;20209;-68
2023/06/07 03:09:47;;;;;;;6.68;4.20;;;20.00;99.90;;;;;;5004170;28;20692;-70
2023/06/07 03:12:13;;;;;;;4.90;3.40;;;20.00;99.90;;;;;;5007384;28;20221;-69
2023/06/07 03:14:41;;;;;;;5.95;3.53;;;20.00;99.90;;;;;;5005435;28;20221;-70
2023/06/07 03:17:08;;;;;;;5.47;3.45;;;20.00;99.90;;;;;;5009813;28;20205;-69
2023/06/07 03:19:34;;;;;;;6.60;3.13;;;20.00;99.90;;;;;;5005050;28;20285;-69
2023/06/07 03:22:00;;;;;;;7.07;4.22;;;20.00;99.90;;;;;;5011716;28;20275;-69
2023/06/07 03:24:28;;;;;;;3.75;3.20;;;20.00;99.90;;;;;;5010500;28;20805;-69
2023/06/07 03:26:54;;;;;;;4.35;3.30;;;20.10;99.90;;;;;;5013317;28;20173;-69
2023/06/07 03:29:19;;;;;;;5.05;3.17;;;20.20;99.90;;;;;;5013868;28;20196;-69
2023/06/07 03:31:45;;;;;;;4.18;3.58;;;20.20;99.90;;;;;;5017874;28;20207;-70
2023/06/07 03:34:11;;;;;;;4.63;3.38;;;20.20;99.90;;;;;;5016479;28;20223;-69
2023/06/07 03:36:36;;;;;;;8.55;3.20;;;20.20;99.90;;;;;;5013992;28;20688;-69
2023/06/07 03:39:02;;;;;;;7.03;3.63;;;20.20;99.90;;;;;;5020391;28;20173;-70
2023/06/07 03:41:28;;;;;;;6.60;3.78;;;20.30;99.90;;;;;;5020262;28;20191;-70
2023/06/07 03:43:54;;;;;;;6.47;3.58;;;20.30;99.90;;;;;;5015757;28;20209;-70
2023/06/07 03:46:19;;;;;;;8.18;3.72;;;20.40;99.90;;;;;;5003983;28;20550;-70
2023/06/07 03:48:45;;;;;;;7.15;3.70;;;20.40;99.90;;;;;;5005707;28;20340;-70
2023/06/07 03:51:11;;;;;;;6.07;3.40;;;20.40;99.90;;;;;;5005891;28;20217;-70
2023/06/07 03:53:38;;;;;;;5.93;3.50;;;20.40;99.90;;;;;;5004706;28;20591;-70
2023/06/07 03:56:05;;;;;;;7.32;3.85;;;20.40;99.90;;;;;;5008107;28;20233;-69
2023/06/07 03:58:31;;;;;;;5.55;3.72;;;20.40;99.90;;;;;;5007066;28;20836;-70
2023/06/07 04:00:56;;;;;;;5.00;3.80;;;20.50;99.90;;;;;;5007858;28;20240;-70
2023/06/07 04:03:24;;;;;;;4.75;3.15;;;20.50;99.90;;;;;;5010848;28;20207;-68
2023/06/07 04:05:53;;;;;;;4.85;3.42;;;20.60;99.90;;;;;;5012606;28;20712;-70
2023/06/07 04:08:18;;;;;;;5.50;3.55;;;20.70;99.90;;;;;;5008655;28;20221;-70
2023/06/07 04:10:44;;;;;;;10.80;3.38;;;20.80;99.90;;;;;;5013754;28;20296;-69
2023/06/07 04:13:10;;;;;;;8.07;4.10;;;20.90;99.90;;;;;;5017979;28;21024;-70
2023/06/07 04:15:35;;;;;;;8.20;4.65;;;21.00;99.90;;;;;;5015117;28;20204;-70
2023/06/07 04:18:01;;;;;;;9.18;3.97;;;21.00;99.90;;;;;;5019253;28;20220;-70
2023/06/07 04:20:27;;;;;;;5.65;3.95;;;21.10;99.90;;;;;;5014219;28;20196;-69
2023/06/07 04:22:53;;;;;;;6.55;3.45;;;21.20;99.90;;;;;;5004419;28;20232;-71
2023/06/07 04:25:24;;;;;;;4.45;3.50;;;21.40;99.90;;;;;;5000495;28;20235;-69
2023/06/07 04:27:51;;;;;;;6.18;3.45;;;21.50;99.90;;;;;;5010023;28;20202;-70
2023/06/07 04:30:18;;;;;;;5.75;3.47;;;21.50;99.90;;;;;;5008069;28;20220;-70
2023/06/07 04:32:44;;;;;;;6.28;3.30;;;21.70;99.90;;;;;;5004711;28;20178;-69
2023/06/07 04:35:11;;;;;;;4.85;3.55;;;21.70;99.90;;;;;;5008397;28;20209;-71
2023/06/07 04:37:37;;;;;;;6.65;4.03;;;21.70;99.90;;;;;;5007130;28;20263;-70
2023/06/07 04:40:04;;;;;;;7.10;3.88;;;21.80;99.90;;;;;;5009123;28;20204;-70
2023/06/07 04:42:30;;;;;;;7.03;3.58;;;22.00;99.90;;;;;;5010459;28;20234;-69
2023/06/07 04:45:00;;;;;;;9.50;3.40;;;22.20;99.90;;;;;;5010237;28;20243;-70
2023/06/07 04:47:27;;;;;;;5.75;3.85;;;22.30;99.90;;;;;;5010251;28;20175;-70
2023/06/07 04:49:53;;;;;;;9.13;4.47;;;22.50;99.90;;;;;;5011654;28;20224;-71
2023/06/07 04:52:19;;;;;;;8.38;4.25;;;22.50;99.90;;;;;;5018729;28;20208;-70
2023/06/07 04:54:46;;;;;;;9.60;4.47;;;22.50;99.90;;;;;;5016805;28;20212;-71
2023/06/07 04:57:12;;;;;;;12.00;5.05;;;22.50;99.90;;;;;;5021175;28;20214;-70
2023/06/07 04:59:42;;;;;;;8.27;4.88;;;22.40;99.90;;;;;;5018916;28;20201;-70
2023/06/07 05:02:08;;;;;;;9.68;4.82;;;22.40;99.90;;;;;;5014774;28;20201;-69
2023/06/07 05:04:34;;;;;;;10.80;5.50;;;22.50;99.90;;;;;;5010586;28;20210;-70
2023/06/07 05:07:00;;;;;;;9.95;5.45;;;22.70;99.90;;;;;;5011681;28;20591;-70
2023/06/07 05:09:26;;;;;;;8.23;5.32;;;22.80;99.90;;;;;;5010582;28;20220;-70
2023/06/07 05:11:52;;;;;;;11.65;4.70;;;22.60;99.90;;;;;;5012683;28;20223;-70
2023/06/07 05:14:18;;;;;;;10.32;5.55;;;22.70;99.90;;;;;;5014877;28;20690;-71
2023/06/07 05:16:44;;;;;;;11.18;5.22;;;22.80;99.90;;;;;;5013207;28;20205;-70
2023/06/07 05:19:10;;;;;;;10.95;4.70;;;22.80;99.90;;;;;;5013465;28;20201;-69
2023/06/07 05:21:37;;;;;;;11.10;4.35;;;22.90;99.90;;;;;;5015146;28;20212;-70
2023/06/07 05:24:03;;;;;;;7.30;4.28;;;23.00;99.90;;;;;;5015461;28;20169;-70
2023/06/07 05:26:28;;;;;;;9.05;3.85;;;23.10;99.90;;;;;;5017124;28;20251;-69
2023/06/07 05:28:55;;;;;;;9.45;4.35;;;23.20;99.90;;;;;;5016150;28;20295;-70
2023/06/07 05:31:22;;;;;;;9.48;3.67;;;23.30;99.90;;;;;;5013164;28;20212;-69
2023/06/07 05:33:48;;;;;;;11.05;3.40;;;23.50;99.90;;;;;;5016894;28;20252;-70
2023/06/07 05:36:14;;;;;;;6.13;3.78;;;23.50;99.90;;;;;;5018445;28;20210;-70
2023/06/07 05:38:40;;;;;;;6.57;3.60;;;23.50;99.90;;;;;;5018746;28;20709;-70
2023/06/07 05:41:07;;;;;;;7.38;3.55;;;23.50;99.90;;;;;;5010479;28;20209;-71
2023/06/07 05:43:32;;;;;;;7.15;3.50;;;23.50;99.90;;;;;;5011023;28;20571;-70
2023/06/07 05:45:58;;;;;;;6.40;3.60;;;23.60;99.90;;;;;;5013726;28;20208;-71
2023/06/07 05:48:23;;;;;;;6.13;3.13;;;24.00;99.90;;;;;;5014413;28;20213;-70
2023/06/07 05:50:49;;;;;;;8.40;3.70;;;24.30;99.90;;;;;;5016630;28;20254;-70
2023/06/07 05:53:16;;;;;;;6.43;3.22;;;25.30;99.90;;;;;;5017526;28;20205;-71
2023/06/07 05:55:42;;;;;;;7.40;3.53;;;25.90;99.30;;;;;;5016842;28;20251;-71
2023/06/07 05:58:07;;;;;;;4.88;3.25;;;26.30;98.00;;;;;;5018015;28;20201;-70
2023/06/07 06:00:33;;;;;;;8.32;3.55;;;27.00;97.00;;;;;;5019486;28;20212;-70
2023/06/07 06:03:01;;;;;;;5.85;3.30;;;28.60;94.60;;;;;;5018444;28;20178;-69
2023/06/07 06:05:30;;;;;;;8.25;3.50;;;30.40;91.20;;;;;;5016011;28;20505;-70
2023/06/07 06:07:59;;;;;;;5.28;3.30;;;31.50;85.30;;;;;;5015044;28;20331;-68
2023/06/07 06:10:25;;;;;;;4.93;3.20;;;30.90;82.60;;;;;;5016862;28;20231;-69
2023/06/07 06:12:50;;;;;;;4.15;3.28;;;29.80;83.20;;;;;;5020507;28;20251;-69
2023/06/07 06:15:16;;;;;;;5.28;3.75;;;28.80;85.00;;;;;;5023370;28;20216;-69
2023/06/07 06:17:42;;;;;;;8.18;3.60;;;28.20;86.30;;;;;;5017981;28;20643;-69
2023/06/07 06:20:08;;;;;;;7.53;3.30;;;27.60;88.30;;;;;;5012399;28;20270;-70
2023/06/07 06:22:34;;;;;;;6.72;3.05;;;27.30;89.30;;;;;;5014578;28;20216;-70
2023/06/07 06:25:00;;;;;;;5.90;3.35;;;27.50;89.90;;;;;;5013987;28;20205;-69
2023/06/07 06:27:25;;;;;;;8.98;3.55;;;28.20;88.10;;;;;;5015080;28;20236;-70
2023/06/07 06:29:51;;;;;;;6.45;3.70;;;28.30;87.20;;;;;;5011658;28;20301;-70
2023/06/07 06:32:16;;;;;;;5.60;3.72;;;28.30;87.60;;;;;;5017430;28;20177;-69
2023/06/07 06:34:44;;;;;;;6.57;3.17;;;28.30;87.10;;;;;;5014883;28;20217;-70
2023/06/07 06:37:09;;;;;;;5.32;3.00;;;27.90;87.40;;;;;;5017506;28;20206;-69
2023/06/07 06:39:35;;;;;;;11.38;4.10;;;27.30;88.20;;;;;;5017593;28;20220;-69
2023/06/07 06:42:01;;;;;;;5.55;3.50;;;27.30;89.10;;;;;;5017884;28;20165;-70
2023/06/07 06:44:27;;;;;;;6.68;3.47;;;27.20;89.40;;;;;;5020975;28;20219;-69
2023/06/07 06:46:53;;;;;;;5.93;3.53;;;27.10;88.40;;;;;;5018724;28;20203;-69
2023/06/07 06:49:18;;;;;;;5.72;3.28;;;27.10;88.30;;;;;;5018809;28;20577;-70
2023/06/07 06:51:45;;;;;;;7.20;3.75;;;27.10;88.70;;;;;;5020067;28;20201;-70
2023/06/07 06:54:12;;;;;;;12.60;3.55;;;27.00;87.50;;;;;;5022080;28;20695;-69
2023/06/07 06:56:37;;;;;;;8.38;3.30;;;27.20;88.10;;;;;;5018044;28;20192;-69
2023/06/07 06:59:03;;;;;;;6.10;3.38;;;27.30;88.40;;;;;;5013015;28;20691;-70
2023/06/07 07:01:46;;;;;;;12.02;3.65;;;27.60;86.90;;;;;;5013740;28;20251;-69
2023/06/07 07:04:14;;;;;;;6.18;3.00;;;27.90;85.70;;;;;;5013587;28;20200;-70
2023/06/07 07:06:41;;;;;;;7.03;3.60;;;27.90;86.60;;;;;;5014803;28;20254;-70
2023/06/07 07:09:07;;;;;;;5.20;2.72;;;28.40;84.80;;;;;;5013805;28;20181;-70
2023/06/07 07:11:33;;;;;;;6.38;3.65;;;28.60;82.10;;;;;;5015849;28;20196;-70
2023/06/07 07:13:59;;;;;;;4.43;2.90;;;28.70;82.50;;;;;;5016019;28;20703;-70
2023/06/07 07:16:24;;;;;;;6.53;3.28;;;28.80;80.70;;;;;;5017979;28;20197;-69
2023/06/07 07:18:50;;;;;;;4.45;3.47;;;29.00;80.00;;;;;;5013801;28;20955;-70
2023/06/07 07:21:16;;;;;;;5.18;2.78;;;29.30;79.30;;;;;;5017628;28;20240;-70
2023/06/07 07:23:41;;;;;;;7.10;4.32;;;29.50;78.40;;;;;;5019145;28;20172;-71
2023/06/07 07:26:07;;;;;;;5.70;3.22;;;30.60;75.90;;;;;;5018616;28;20235;-70
2023/06/07 07:28:33;;;;;;;8.68;3.60;;;31.80;73.10;;;;;;5020208;28;20430;-70
2023/06/07 07:30:58;;;;;;;5.03;2.85;;;31.70;72.20;;;;;;5018563;28;20682;-70
2023/06/07 07:33:24;;;;;;;6.75;2.90;;;32.20;70.60;;;;;;5022381;28;20350;-72
2023/06/07 07:35:51;;;;;;;5.32;3.17;;;33.20;69.00;;;;;;5015465;28;20177;-72
2023/06/07 07:38:16;;;;;;;5.40;3.53;;;34.20;67.40;;;;;;5011303;28;20223;-71
2023/06/07 07:40:44;;;;;;;9.70;4.68;;;35.20;64.70;;;;;;5013307;28;20573;-70
2023/06/07 07:43:10;;;;;;;23.98;18.27;;;35.00;61.30;;;;;;5013048;28;20211;-68
2023/06/07 07:45:37;;;;;;;7.03;3.53;;;35.20;62.30;;;;;;5014204;28;20266;-70
2023/06/07 07:48:03;;;;;;;9.38;6.38;;;34.70;60.50;;;;;;5014107;28;20179;-70
2023/06/07 07:50:30;;;;;;;5.80;4.35;;;35.20;61.30;;;;;;5015056;28;20228;-69
2023/06/07 07:52:56;;;;;;;6.10;4.25;;;35.50;60.10;;;;;;5015251;28;20200;-69
2023/06/07 07:55:23;;;;;;;6.63;4.45;;;35.90;60.20;;;;;;5016967;28;20231;-70
2023/06/07 07:57:49;;;;;;;5.88;4.05;;;36.30;58.80;;;;;;5016918;28;20200;-73
2023/06/07 08:00:16;;;;;;;6.72;3.65;;;36.30;57.90;;;;;;5018348;28;20741;-71
2023/06/07 08:02:42;;;;;;;5.68;3.72;;;36.80;57.40;;;;;;5022797;28;20176;-72
2023/06/07 08:05:08;;;;;;;7.68;3.63;;;36.90;56.90;;;;;;5023154;28;20211;-70
2023/06/07 08:07:34;;;;;;;6.35;4.10;;;36.00;56.70;;;;;;5021025;28;20212;-69
2023/06/07 08:10:00;;;;;;;5.72;4.45;;;34.40;58.20;;;;;;5022265;28;20215;-69
2023/06/07 08:12:26;;;;;;;4.72;3.65;;;33.90;59.40;;;;;;5022399;28;20204;-69
2023/06/07 08:14:52;;;;;;;7.55;4.28;;;32.70;60.10;;;;;;5010832;28;20226;-69
2023/06/07 08:17:19;;;;;;;6.97;4.30;;;32.00;60.70;;;;;;5012371;28;20255;-69
2023/06/07 08:19:45;;;;;;;6.80;4.13;;;32.10;61.50;;;;;;5011007;28;20200;-70
2023/06/07 08:22:11;;;;;;;6.40;3.67;;;31.90;61.80;;;;;;5012844;28;20207;-70
2023/06/07 08:24:38;;;;;;;5.53;4.18;;;32.00;60.60;;;;;;5013524;28;20208;-70
2023/06/07 08:27:04;;;;;;;7.55;3.70;;;32.10;61.60;;;;;;5012419;28;20173;-70
2023/06/07 08:29:29;;;;;;;4.55;3.17;;;31.70;61.20;;;;;;5015788;28;20189;-68
2023/06/07 08:31:56;;;;;;;5.78;3.45;;;31.90;62.20;;;;;;5014664;28;20255;-70
2023/06/07 08:34:27;;;;;;;4.70;3.75;;;32.10;62.60;;;;;;5016458;28;20278;-69
2023/06/07 08:36:53;;;;;;;8.20;3.83;;;32.30;62.40;;;;;;5015884;28;20643;-70
2023/06/07 08:39:19;;;;;;;6.70;3.60;;;32.50;62.00;;;;;;5017502;28;20212;-70
2023/06/07 08:41:45;;;;;;;6.70;3.38;;;32.50;62.50;;;;;;5017234;28;20273;-70
2023/06/07 08:44:10;;;;;;;5.22;3.72;;;32.30;62.60;;;;;;5016153;28;20667;-70
2023/06/07 08:46:37;;;;;;;5.70;3.47;;;32.20;63.50;;;;;;5018046;28;20741;-71
2023/06/07 08:49:05;;;;;;;4.45;3.47;;;32.10;63.20;;;;;;5012314;28;20229;-70
2023/06/07 08:51:36;;;;;;;6.70;3.67;;;31.90;63.80;;;;;;5021692;28;20211;-69
2023/06/07 08:54:03;;;;;;;6.88;3.53;;;32.20;64.30;;;;;;5010995;28;20169;-70
2023/06/07 08:56:33;;;;;;;8.13;4.30;;;32.20;64.70;;;;;;5011668;28;20184;-70
2023/06/07 08:58:59;;;;;;;4.15;3.40;;;32.40;63.80;;;;;;5012020;28;20205;-71
2023/06/07 09:01:28;;;;;;;5.30;3.28;;;31.40;63.70;;;;;;5012800;28;20217;-70
2023/06/07 09:03:54;;;;;;;5.38;3.20;;;31.20;64.40;;;;;;5011532;28;20754;-70
2023/06/07 09:06:22;;;;;;;6.75;3.55;;;30.70;65.10;;;;;;5013103;28;20208;-70
2023/06/07 09:08:48;;;;;;;7.57;3.67;;;30.60;66.00;;;;;;5019150;28;20197;-71
2023/06/07 09:11:15;;;;;;;31.27;22.67;;;30.50;65.90;;;;;;5014506;28;20212;-71
2023/06/07 09:13:41;;;;;;;10.05;3.78;;;30.60;66.40;;;;;;5011161;28;20341;-70
2023/06/07 09:16:10;;;;;;;8.95;5.20;;;31.00;65.90;;;;;;5013664;28;20200;-70
2023/06/07 09:18:53;;;;;;;6.43;4.32;;;30.40;66.10;;;;;;5017455;28;20551;-70
2023/06/07 09:21:23;;;;;;;8.23;5.43;;;30.70;66.10;;;;;;5019668;28;20208;-70
2023/06/07 09:23:50;;;;;;;21.90;12.15;;;31.50;67.50;;;;;;5020927;28;20251;-70
2023/06/07 09:26:17;;;;;;;7.45;4.70;;;32.20;66.20;;;;;;5022257;28;20208;-70
2023/06/07 09:28:45;;;;;;;9.75;4.28;;;32.10;64.60;;;;;;5022265;28;20246;-70
2023/06/07 09:31:11;;;;;;;5.18;3.92;;;32.30;64.60;;;;;;5018303;28;20215;-70
2023/06/07 09:33:37;;;;;;;22.70;4.72;;;32.30;65.40;;;;;;5013546;28;20299;-70
2023/06/07 09:36:15;;;;;;;6.88;4.00;;;32.50;64.90;;;;;;5014800;28;20248;-70
2023/06/07 09:38:41;;;;;;;11.18;4.68;;;33.00;63.10;;;;;;5017033;28;20176;-70
2023/06/07 09:41:09;;;;;;;14.40;5.65;;;33.40;63.00;;;;;;5016304;28;20215;-70
2023/06/07 09:43:50;;;;;;;6.28;4.82;;;34.00;62.90;;;;;;5021632;28;20201;-71
2023/06/07 09:46:19;;;;;;;7.70;3.97;;;33.80;62.40;;;;;;5016503;28;20287;-70
2023/06/07 09:48:46;;;;;;;4.82;4.05;;;33.70;62.80;;;;;;5011598;28;20213;-71
2023/06/07 09:51:12;;;;;;;6.90;4.30;;;33.50;62.60;;;;;;5018229;28;20683;-71
2023/06/07 09:54:01;;;;;;;8.93;4.97;;;32.90;62.50;;;;;;5021156;28;20190;-71
2023/06/07 09:56:27;;;;;;;7.78;4.05;;;33.40;62.70;;;;;;5021527;28;20197;-70
2023/06/07 09:59:08;;;;;;;8.68;4.28;;;33.20;61.90;;;;;;5019666;28;20746;-70
2023/06/07 10:01:42;;;;;;;6.90;4.53;;;33.00;62.00;;;;;;5023595;28;20261;-69
2023/06/07 10:04:08;;;;;;;9.43;5.43;;;33.00;62.70;;;;;;5016957;28;20263;-70
2023/06/07 10:06:42;;;;;;;10.02;2.90;;;33.20;62.60;;;;;;5022728;28;20776;-71
2023/06/07 10:09:08;;;;;;;6.60;3.80;;;32.60;61.70;;;;;;5016814;28;20262;-70
2023/06/07 10:11:39;;;;;;;6.80;2.80;;;31.60;65.30;;;;;;5014675;28;20197;-70
2023/06/07 10:14:18;;;;;;;5.40;3.50;;;30.80;65.00;;;;;;5015191;28;20633;-71
2023/06/07 10:17:05;;;;;;;6.30;4.35;;;30.70;66.40;;;;;;5015298;28;20235;-69
2023/06/07 10:19:36;;;;;;;10.57;3.70;;;31.20;66.60;;;;;;5010754;28;20216;-69
2023/06/07 10:22:04;;;;;;;6.40;4.53;;;31.70;65.90;;;;;;5016728;28;20232;-69
2023/06/07 10:24:35;;;;;;;8.98;3.97;;;31.90;65.80;;;;;;5015410;28;20213;-69
2023/06/07 10:27:13;;;;;;;4.90;3.08;;;31.80;64.60;;;;;;5017681;28;20169;-69
2023/06/07 10:29:44;;;;;;;6.78;4.88;;;31.20;66.30;;;;;;5018244;28;20218;-70
2023/06/07 10:32:25;;;;;;;4.95;3.50;;;31.40;66.60;;;;;;5018679;28;20749;-70
2023/06/07 10:34:54;;;;;;;6.00;4.03;;;31.70;65.50;;;;;;5016710;28;20212;-69
2023/06/07 10:37:20;;;;;;;7.78;3.28;;;31.40;65.80;;;;;;5020294;28;20198;-69
2023/06/07 10:39:46;;;;;;;4.95;3.53;;;30.30;66.10;;;;;;5019956;28;20208;-69
2023/06/07 10:42:13;;;;;;;7.00;3.50;;;30.20;66.80;;;;;;5020496;28;20679;-70
2023/06/07 10:44:39;;;;;;;5.25;3.90;;;30.60;66.50;;;;;;5023401;28;20173;-70
2023/06/07 10:47:23;;;;;;;6.00;3.50;;;30.70;66.10;;;;;;5020831;28;20207;-70
2023/06/07 10:49:50;;;;;;;4.57;3.58;;;31.30;66.20;;;;;;5008734;28;20579;-70
2023/06/07 10:52:16;;;;;;;7.55;3.38;;;31.40;66.50;;;;;;5012613;28;20209;-70
2023/06/07 10:54:43;;;;;;;5.47;3.83;;;31.50;65.60;;;;;;5014245;28;20550;-70
2023/06/07 10:57:10;;;;;;;5.47;3.00;;;31.40;66.00;;;;;;5013632;28;20169;-70
2023/06/07 10:59:36;;;;;;;6.28;3.38;;;31.50;67.00;;;;;;5016739;28;20224;-70
2023/06/07 11:02:24;;;;;;;5.28;3.72;;;31.20;66.10;;;;;;5015725;28;20218;-70
2023/06/07 11:04:51;;;;;;;4.70;3.20;;;30.70;66.00;;;;;;5017353;28;20212;-70
2023/06/07 11:07:22;;;;;;;4.72;3.72;;;30.30;67.10;;;;;;5015227;28;20227;-70
2023/06/07 11:10:07;;;;;;;4.38;3.05;;;30.10;67.60;;;;;;5030850;28;20220;-71
2023/06/07 11:12:35;;;;;;;10.93;4.68;;;30.40;67.90;;;;;;5018229;28;20220;-70
2023/06/07 11:15:24;;;;;;;4.95;3.97;;;30.80;68.10;;;;;;5017902;28;20173;-70
2023/06/07 11:18:01;;;;;;;3.33;3.00;;;31.10;66.90;;;;;;5017625;28;20179;-71
2023/06/07 11:20:36;;;;;;;5.03;3.28;;;30.50;66.40;;;;;;4997375;28;20205;-70
2023/06/07 11:23:30;;;;;;;8.50;3.95;;;30.80;66.90;;;;;;5018049;28;20204;-70
2023/06/07 11:26:06;;;;;;;5.57;3.63;;;30.90;66.80;;;;;;5018740;28;20204;-70
2023/06/07 11:28:33;;;;;;;4.43;3.45;;;30.90;66.20;;;;;;5012804;28;20199;-70
2023/06/07 11:31:00;;;;;;;5.55;4.07;;;30.90;65.80;;;;;;5013340;28;20208;-69
2023/06/07 11:33:27;;;;;;;6.32;4.13;;;30.90;66.20;;;;;;5013508;28;20680;-70
2023/06/07 11:35:53;;;;;;;4.28;3.45;;;30.40;66.50;;;;;;5014373;28;20178;-70
2023/06/07 11:38:20;;;;;;;3.83;3.38;;;30.40;66.70;;;;;;5015207;28;20585;-69
2023/06/07 11:40:47;;;;;;;4.75;3.78;;;30.70;66.30;;;;;;5015873;28;20575;-69
2023/06/07 11:43:14;;;;;;;7.25;4.18;;;30.80;66.00;;;;;;5014050;28;20196;-69
2023/06/07 11:45:41;;;;;;;4.97;3.22;;;31.20;66.10;;;;;;5017178;28;20288;-67
2023/06/07 11:48:08;;;;;;;6.93;3.80;;;31.40;65.30;;;;;;5016805;28;20165;-68
2023/06/07 11:50:38;;;;;;;6.15;3.45;;;31.80;65.60;;;;;;5016087;28;20691;-69
2023/06/07 11:53:06;;;;;;;6.45;3.00;;;31.70;64.20;;;;;;5016108;28;20765;-69
2023/06/07 11:55:32;;;;;;;4.97;3.22;;;31.70;64.30;;;;;;5019116;28;20243;-69
2023/06/07 11:58:02;;;;;;;5.63;3.00;;;31.40;63.40;;;;;;5019073;28;20223;-70
2023/06/07 12:00:30;;;;;;;6.70;3.20;;;31.10;63.80;;;;;;5020415;28;20236;-69
2023/06/07 12:02:57;;;;;;;5.28;3.20;;;30.70;64.60;;;;;;5020067;28;20179;-69
2023/06/07 12:05:30;;;;;;;6.72;3.30;;;30.40;65.40;;;;;;5013917;28;20173;-69
2023/06/07 12:08:00;;;;;;;7.32;3.80;;;30.00;66.50;;;;;;5011867;28;20213;-70
2023/06/07 12:10:28;;;;;;;3.42;3.05;;;30.10;66.80;;;;;;5012248;28;20270;-68
2023/06/07 12:13:11;;;;;;;5.00;4.05;;;30.20;66.50;;;;;;5013528;28;20216;-69
2023/06/07 12:15:48;;;;;;;4.65;3.20;;;30.00;65.80;;;;;;5011068;28;20713;-70
2023/06/07 12:18:16;;;;;;;5.35;3.58;;;29.90;66.20;;;;;;5010873;28;20235;-70
2023/06/07 12:20:47;;;;;;;3.75;2.88;;;29.50;66.50;;;;;;5014502;28;20196;-69
2023/06/07 12:23:14;;;;;;;4.60;3.00;;;29.30;66.80;;;;;;5015530;28;20255;-68
2023/06/07 12:25:41;;;;;;;5.85;3.38;;;29.50;68.50;;;;;;5015360;28;20209;-69
2023/06/07 12:28:09;;;;;;;5.45;3.05;;;29.10;67.10;;;;;;5016033;28;20691;-69
2023/06/07 12:30:40;;;;;;;6.15;3.08;;;29.00;67.70;;;;;;5017953;28;20216;-69
2023/06/07 12:33:14;;;;;;;4.75;3.78;;;29.00;68.20;;;;;;5016731;28;20176;-70
2023/06/07 12:35:44;;;;;;;14.20;3.55;;;29.10;68.20;;;;;;5019621;28;20177;-69
2023/06/07 12:38:10;;;;;;;5.05;3.50;;;29.10;68.90;;;;;;5002318;28;20737;-69
2023/06/07 12:40:36;;;;;;;4.03;2.90;;;29.20;69.10;;;;;;5021070;28;20291;-70
2023/06/07 12:43:03;;;;;;;5.10;2.88;;;29.30;69.20;;;;;;5019179;28;20303;-69
2023/06/07 12:45:28;;;;;;;5.65;3.47;;;29.30;69.40;;;;;;5010345;28;20696;-70
2023/06/07 12:47:54;;;;;;;7.15;3.70;;;29.30;68.90;;;;;;5011761;28;20189;-69